Time;durP1;ratioP1;P1;durP2;ratioP2;P2;SDS_P1;SDS_P2;PMS_P1;PMS_P2;Temp;Humidity;BMP_temperature;BMP_pressure;BME280_temperature;BME280_humidity;BME280_pressure;Samples;Min_cycle;Max_cycle;Signal;HPM_P1;HPM_P2
2023/12/04 00:01:00;;;;;;;1.50;1.40;;;2.20;39.40;;;;;;5033295;28;20631;-51
2023/12/04 00:03:26;;;;;;;2.50;1.20;;;2.10;39.20;;;;;;5047485;28;20243;-51
2023/12/04 00:05:51;;;;;;;4.27;2.93;;;2.00;39.20;;;;;;5052582;28;20180;-58
2023/12/04 00:08:17;;;;;;;2.10;1.93;;;1.90;39.00;;;;;;5047519;28;20324;-50
2023/12/04 00:10:43;;;;;;;2.43;2.27;;;1.90;39.30;;;;;;5032631;28;20204;-50
2023/12/04 00:13:09;;;;;;;1.60;1.50;;;1.80;39.60;;;;;;5032590;28;20194;-52
2023/12/04 00:15:34;;;;;;;3.20;1.60;;;1.70;39.20;;;;;;5040058;28;20425;-54
2023/12/04 00:18:00;;;;;;;2.70;1.90;;;1.60;39.20;;;;;;5033021;28;20342;-50
2023/12/04 00:20:26;;;;;;;3.00;2.03;;;1.60;39.40;;;;;;5047334;28;20177;-58
2023/12/04 00:22:51;;;;;;;2.90;2.47;;;1.60;39.40;;;;;;5050570;28;20673;-51
2023/12/04 00:25:17;;;;;;;2.27;1.03;;;1.60;39.40;;;;;;5032159;28;20169;-57
2023/12/04 00:27:43;;;;;;;3.00;2.20;;;1.60;39.50;;;;;;5032371;28;20177;-55
2023/12/04 00:30:09;;;;;;;5.77;5.37;;;1.60;39.70;;;;;;5032579;28;20243;-53
2023/12/04 00:32:35;;;;;;;3.50;3.30;;;1.60;39.50;;;;;;5032348;28;20243;-56
2023/12/04 00:35:01;;;;;;;1.70;1.60;;;1.60;39.50;;;;;;5032523;28;20195;-51
2023/12/04 00:37:27;;;;;;;1.30;0.80;;;1.60;39.60;;;;;;5032142;28;20292;-54
2023/12/04 00:39:53;;;;;;;2.38;1.33;;;1.70;39.60;;;;;;5032432;28;20175;-54
2023/12/04 00:42:19;;;;;;;2.22;1.02;;;1.70;39.50;;;;;;5032260;28;20540;-53
2023/12/04 00:44:45;;;;;;;2.13;1.93;;;1.70;40.40;;;;;;5032326;28;20257;-54
2023/12/04 00:47:10;;;;;;;1.57;1.47;;;1.70;39.60;;;;;;5032127;28;20184;-55
2023/12/04 00:49:36;;;;;;;0.90;0.77;;;1.70;39.10;;;;;;5032319;28;20204;-51
2023/12/04 00:52:02;;;;;;;3.05;2.50;;;1.60;39.20;;;;;;5032170;28;20253;-54
2023/12/04 00:54:28;;;;;;;3.47;2.67;;;1.60;38.80;;;;;;5032204;28;20287;-55
2023/12/04 00:56:54;;;;;;;2.53;2.33;;;1.50;38.90;;;;;;5031931;28;20498;-54
2023/12/04 00:59:19;;;;;;;6.73;2.80;;;1.40;39.10;;;;;;5032128;28;20532;-57
2023/12/04 01:01:45;;;;;;;6.53;2.17;;;1.40;39.30;;;;;;5031998;28;20258;-51
2023/12/04 01:04:11;;;;;;;1.67;1.47;;;1.40;39.40;;;;;;5032016;28;20189;-52
2023/12/04 01:06:37;;;;;;;0.90;0.50;;;1.40;39.60;;;;;;5031853;28;20180;-54
2023/12/04 01:09:02;;;;;;;1.67;1.50;;;1.40;39.50;;;;;;5032095;28;20174;-50
2023/12/04 01:11:28;;;;;;;1.27;1.17;;;1.50;39.70;;;;;;5031976;28;20184;-57
2023/12/04 01:13:54;;;;;;;2.37;1.60;;;1.50;39.70;;;;;;5031816;28;20436;-51
2023/12/04 01:16:19;;;;;;;3.20;1.70;;;1.50;39.50;;;;;;5031672;28;20232;-53
2023/12/04 01:18:45;;;;;;;3.00;2.03;;;1.50;39.50;;;;;;5032035;28;20165;-56
2023/12/04 01:21:11;;;;;;;0.87;0.63;;;1.40;39.30;;;;;;5031898;28;20290;-50
2023/12/04 01:23:37;;;;;;;4.00;1.80;;;1.40;39.00;;;;;;5031843;28;20726;-49
2023/12/04 01:26:04;;;;;;;2.90;2.60;;;1.30;38.50;;;;;;5031692;28;20296;-55
2023/12/04 01:28:30;;;;;;;3.13;2.45;;;1.20;38.80;;;;;;5031757;28;20182;-57
2023/12/04 01:30:55;;;;;;;1.73;1.47;;;1.10;38.90;;;;;;5031779;28;20774;-50
2023/12/04 01:33:21;;;;;;;1.60;1.30;;;1.10;38.90;;;;;;5031801;28;20430;-59
2023/12/04 01:35:47;;;;;;;1.73;1.17;;;1.10;39.20;;;;;;5031495;28;20300;-50
2023/12/04 01:38:12;;;;;;;1.73;1.60;;;1.10;39.30;;;;;;5033005;28;20237;-58
2023/12/04 01:40:38;;;;;;;0.80;0.50;;;1.10;39.20;;;;;;5035696;28;20253;-51
2023/12/04 01:43:05;;;;;;;12.45;4.05;;;1.10;38.70;;;;;;5035496;28;20186;-52
2023/12/04 01:45:31;;;;;;;2.08;1.70;;;1.00;38.80;;;;;;5035437;28;20172;-58
2023/12/04 01:47:57;;;;;;;3.30;3.00;;;1.00;38.30;;;;;;5035614;28;20200;-51
2023/12/04 01:50:24;;;;;;;2.20;1.92;;;0.90;38.60;;;;;;5035478;28;20912;-54
2023/12/04 01:52:51;;;;;;;2.03;1.85;;;0.80;38.80;;;;;;5035526;28;20198;-55
2023/12/04 01:55:18;;;;;;;2.17;1.85;;;0.90;39.30;;;;;;5035256;28;20527;-52
2023/12/04 01:57:44;;;;;;;1.00;0.75;;;0.90;39.50;;;;;;5035372;28;20793;-55
2023/12/04 02:00:12;;;;;;;3.55;2.15;;;0.90;39.30;;;;;;5035464;28;20192;-55
2023/12/04 02:02:39;;;;;;;1.00;0.88;;;1.00;39.50;;;;;;5035243;28;20204;-51
2023/12/04 02:05:10;;;;;;;5.05;2.83;;;1.00;39.40;;;;;;5035231;28;20639;-53
2023/12/04 02:07:36;;;;;;;0.85;0.63;;;1.00;39.30;;;;;;5035053;28;20178;-53
2023/12/04 02:10:03;;;;;;;6.40;4.55;;;1.00;39.30;;;;;;5035180;28;20211;-52
2023/12/04 02:12:29;;;;;;;3.17;2.80;;;1.00;39.40;;;;;;5034861;28;20272;-53
2023/12/04 02:14:56;;;;;;;9.90;1.95;;;1.00;39.40;;;;;;5035068;28;20230;-57
2023/12/04 02:17:22;;;;;;;1.88;1.25;;;1.00;39.40;;;;;;5034916;28;20201;-52
2023/12/04 02:19:48;;;;;;;1.73;1.45;;;1.00;39.30;;;;;;5034995;28;20180;-53
2023/12/04 02:22:14;;;;;;;1.40;1.07;;;1.00;39.20;;;;;;5034841;28;20186;-58
2023/12/04 02:24:40;;;;;;;3.83;3.33;;;1.10;39.50;;;;;;5034845;28;20401;-50
2023/12/04 02:27:20;;;;;;;0.80;0.75;;;1.10;39.60;;;;;;5034667;28;20257;-53
2023/12/04 02:29:57;;;;;;;0.93;0.82;;;1.10;39.60;;;;;;5034881;28;20221;-58
2023/12/04 02:32:24;;;;;;;2.45;2.25;;;1.20;39.80;;;;;;5034738;28;20166;-49
2023/12/04 02:34:51;;;;;;;1.10;1.00;;;1.20;39.70;;;;;;5034720;28;20174;-53
2023/12/04 02:37:18;;;;;;;1.30;1.20;;;1.30;39.90;;;;;;5034419;28;20812;-55
2023/12/04 02:39:44;;;;;;;1.85;1.70;;;1.30;39.70;;;;;;5034647;28;20191;-57
2023/12/04 02:42:13;;;;;;;1.97;1.30;;;1.30;39.50;;;;;;5034507;28;20162;-51
2023/12/04 02:44:39;;;;;;;0.80;0.38;;;1.30;39.50;;;;;;5034570;28;20416;-52
2023/12/04 02:47:05;;;;;;;1.90;1.80;;;1.20;39.50;;;;;;5034418;28;20242;-55
2023/12/04 02:49:31;;;;;;;4.50;1.25;;;1.20;39.60;;;;;;5034143;28;20972;-50
2023/12/04 02:51:57;;;;;;;0.80;0.40;;;1.30;39.60;;;;;;5034267;28;20218;-54
2023/12/04 02:54:23;;;;;;;1.55;1.15;;;1.30;39.40;;;;;;5034223;28;20225;-57
2023/12/04 02:56:50;;;;;;;0.83;0.57;;;1.30;39.40;;;;;;5034161;28;20229;-54
2023/12/04 02:59:15;;;;;;;3.38;2.05;;;1.20;39.50;;;;;;5034277;28;20462;-57
2023/12/04 03:01:41;;;;;;;2.03;0.77;;;1.20;39.40;;;;;;5034201;28;20178;-56
2023/12/04 03:04:07;;;;;;;3.53;3.33;;;1.20;39.30;;;;;;5034155;28;20195;-49
2023/12/04 03:06:33;;;;;;;2.20;2.00;;;1.20;39.40;;;;;;5033914;28;20170;-52
2023/12/04 03:08:59;;;;;;;2.50;1.83;;;1.20;39.50;;;;;;5034110;28;20170;-57
2023/12/04 03:11:25;;;;;;;0.90;0.75;;;1.20;39.40;;;;;;5034097;28;20169;-58
2023/12/04 03:13:51;;;;;;;2.00;0.68;;;1.10;38.90;;;;;;5033993;28;20204;-51
2023/12/04 03:16:17;;;;;;;1.60;1.50;;;1.10;39.20;;;;;;5033878;28;20204;-57
2023/12/04 03:18:44;;;;;;;2.28;1.80;;;1.10;39.40;;;;;;5034030;28;20173;-56
2023/12/04 03:21:10;;;;;;;1.00;0.82;;;1.10;39.40;;;;;;5033684;28;20655;-50
2023/12/04 03:23:36;;;;;;;4.55;1.63;;;1.10;39.00;;;;;;5033785;28;20651;-57
2023/12/04 03:26:02;;;;;;;1.53;1.43;;;1.00;39.10;;;;;;5033719;28;20177;-58
2023/12/04 03:28:28;;;;;;;1.25;0.50;;;1.00;38.80;;;;;;5033785;28;20416;-51
2023/12/04 03:30:54;;;;;;;2.33;1.40;;;0.90;39.00;;;;;;5033718;28;20539;-55
2023/12/04 03:33:19;;;;;;;0.90;0.63;;;0.90;39.10;;;;;;5033655;28;20964;-56
2023/12/04 03:35:45;;;;;;;0.83;0.50;;;0.90;39.10;;;;;;5033257;28;20177;-51
2023/12/04 03:38:11;;;;;;;1.43;1.33;;;0.90;38.90;;;;;;5033664;28;20263;-49
2023/12/04 03:40:36;;;;;;;2.90;2.23;;;0.80;39.20;;;;;;5033538;28;20252;-56
2023/12/04 03:43:02;;;;;;;1.53;1.43;;;0.90;39.30;;;;;;5033371;28;20188;-55
2023/12/04 03:45:28;;;;;;;0.90;0.60;;;0.80;39.20;;;;;;5033291;28;20517;-50
2023/12/04 03:47:54;;;;;;;1.73;1.60;;;0.80;38.90;;;;;;5033444;28;20223;-51
2023/12/04 03:50:20;;;;;;;0.80;0.60;;;0.80;39.00;;;;;;5033293;28;20693;-57
2023/12/04 03:52:45;;;;;;;2.70;1.13;;;0.70;38.90;;;;;;5033202;28;20302;-51
2023/12/04 03:55:11;;;;;;;0.90;0.70;;;0.60;38.80;;;;;;5033256;28;20187;-51
2023/12/04 03:57:37;;;;;;;0.83;0.53;;;0.60;39.00;;;;;;5032996;28;20227;-54
2023/12/04 04:00:04;;;;;;;0.90;0.60;;;0.60;38.70;;;;;;5032953;28;20771;-56
2023/12/04 04:02:29;;;;;;;0.80;0.45;;;0.40;38.40;;;;;;5032640;28;20443;-51
2023/12/04 04:04:55;;;;;;;0.77;0.30;;;0.40;38.80;;;;;;5033120;28;20643;-51
2023/12/04 04:07:21;;;;;;;2.10;1.80;;;0.40;39.20;;;;;;5032784;28;20180;-54
2023/12/04 04:09:46;;;;;;;2.27;1.83;;;0.40;39.30;;;;;;5032929;28;20172;-53
2023/12/04 04:12:12;;;;;;;2.27;2.10;;;0.50;39.20;;;;;;5032766;28;20174;-50
2023/12/04 04:14:38;;;;;;;1.20;1.07;;;0.50;39.00;;;;;;5032828;28;20170;-53
2023/12/04 04:17:04;;;;;;;2.00;1.40;;;0.50;39.00;;;;;;5032621;28;20244;-56
2023/12/04 04:19:30;;;;;;;4.10;1.20;;;0.40;38.40;;;;;;5032747;28;20166;-50
2023/12/04 04:21:55;;;;;;;1.93;1.83;;;0.40;38.20;;;;;;5032552;28;20553;-53
2023/12/04 04:24:21;;;;;;;0.90;0.67;;;0.30;38.60;;;;;;5032640;28;20737;-58
2023/12/04 04:26:47;;;;;;;1.23;1.13;;;0.30;38.50;;;;;;5032507;28;20235;-51
2023/12/04 04:29:13;;;;;;;0.70;0.30;;;0.30;38.50;;;;;;5032623;28;20536;-57
2023/12/04 04:31:38;;;;;;;1.07;0.80;;;0.20;38.40;;;;;;5032513;28;20545;-57
2023/12/04 04:34:04;;;;;;;2.87;2.67;;;0.20;38.70;;;;;;5032406;28;20512;-51
2023/12/04 04:36:30;;;;;;;1.10;0.90;;;0.20;38.90;;;;;;5032170;28;20205;-54
2023/12/04 04:38:56;;;;;;;4.13;2.33;;;0.20;38.80;;;;;;5032431;28;20167;-53
2023/12/04 04:41:21;;;;;;;3.93;0.73;;;0.20;38.60;;;;;;5032414;28;20399;-50
2023/12/04 04:43:47;;;;;;;1.00;0.90;;;0.20;38.40;;;;;;5032328;28;20216;-55
2023/12/04 04:46:13;;;;;;;1.23;1.10;;;0.20;38.50;;;;;;5032150;28;20655;-55
2023/12/04 04:48:40;;;;;;;1.77;0.87;;;0.20;38.20;;;;;;5032160;28;20175;-57
2023/12/04 04:51:06;;;;;;;2.95;2.20;;;0.10;38.50;;;;;;5032256;28;20415;-49
2023/12/04 04:53:32;;;;;;;1.60;1.50;;;0.10;38.60;;;;;;5032120;28;20198;-57
2023/12/04 04:55:57;;;;;;;1.53;1.17;;;0.20;38.70;;;;;;5031933;28;20456;-56
2023/12/04 04:58:23;;;;;;;2.93;0.93;;;0.20;38.60;;;;;;5032222;28;20639;-51
2023/12/04 05:00:49;;;;;;;0.90;0.70;;;0.20;38.50;;;;;;5032051;28;20174;-55
2023/12/04 05:03:14;;;;;;;1.50;1.13;;;0.10;38.30;;;;;;5031972;28;20197;-58
2023/12/04 05:05:40;;;;;;;1.47;1.37;;;0.10;38.30;;;;;;5031839;28;20162;-51
2023/12/04 05:08:06;;;;;;;2.90;2.10;;;0.10;38.50;;;;;;5032099;28;20188;-53
2023/12/04 05:10:32;;;;;;;4.10;1.97;;;0.10;38.70;;;;;;5032012;28;20566;-55
2023/12/04 05:12:57;;;;;;;2.30;1.90;;;0.20;38.90;;;;;;5031926;28;20709;-55
2023/12/04 05:15:23;;;;;;;1.20;0.80;;;0.20;39.00;;;;;;5031866;28;20937;-50
2023/12/04 05:17:49;;;;;;;4.50;3.87;;;0.20;39.00;;;;;;5031763;28;20242;-59
2023/12/04 05:20:15;;;;;;;1.77;1.67;;;0.30;39.30;;;;;;5031965;28;20197;-56
2023/12/04 05:22:40;;;;;;;0.70;0.33;;;0.30;39.20;;;;;;5031761;28;20593;-52
2023/12/04 05:25:07;;;;;;;0.77;0.43;;;0.40;39.10;;;;;;5031860;28;20625;-54
2023/12/04 05:27:32;;;;;;;2.83;2.53;;;0.40;38.90;;;;;;5031885;28;20406;-56
2023/12/04 05:29:58;;;;;;;1.53;1.43;;;0.40;39.00;;;;;;5031836;28;20178;-57
2023/12/04 05:32:24;;;;;;;0.90;0.37;;;0.40;39.20;;;;;;5031644;28;20166;-50
2023/12/04 05:34:50;;;;;;;0.80;0.50;;;0.50;39.20;;;;;;5031765;28;20413;-59
2023/12/04 05:37:15;;;;;;;0.80;0.53;;;0.50;39.00;;;;;;5031537;28;20204;-49
2023/12/04 05:39:42;;;;;;;0.83;0.67;;;0.50;38.90;;;;;;5031743;28;20444;-54
2023/12/04 05:42:08;;;;;;;0.90;0.63;;;0.50;39.00;;;;;;5031701;28;20252;-52
2023/12/04 05:44:34;;;;;;;0.80;0.40;;;0.50;39.10;;;;;;5031708;28;20169;-51
2023/12/04 05:47:00;;;;;;;1.58;1.48;;;0.50;40.00;;;;;;5031439;28;20512;-52
2023/12/04 05:49:26;;;;;;;1.60;1.50;;;0.50;39.60;;;;;;5031639;28;20205;-55
2023/12/04 05:51:52;;;;;;;0.80;0.43;;;0.60;39.80;;;;;;5031648;28;20174;-57
2023/12/04 05:54:18;;;;;;;7.33;1.73;;;0.70;40.00;;;;;;5031531;28;20435;-51
2023/12/04 05:56:44;;;;;;;2.23;2.07;;;0.80;40.70;;;;;;5031439;28;20477;-54
2023/12/04 05:59:09;;;;;;;2.63;1.37;;;0.90;41.00;;;;;;5031618;28;20171;-55
2023/12/04 06:01:35;;;;;;;8.40;2.97;;;0.90;43.30;;;;;;5031449;28;20714;-54
2023/12/04 06:04:01;;;;;;;2.50;0.97;;;1.10;42.90;;;;;;5031431;28;20188;-56
2023/12/04 06:06:27;;;;;;;0.80;0.50;;;1.30;42.60;;;;;;5031579;28;20197;-51
2023/12/04 06:08:52;;;;;;;3.27;1.57;;;1.40;42.40;;;;;;5031510;28;20818;-57
2023/12/04 06:11:18;;;;;;;5.00;3.03;;;1.50;42.10;;;;;;5031423;28;20419;-56
2023/12/04 06:13:44;;;;;;;0.80;0.55;;;1.50;42.10;;;;;;5031348;28;20193;-51
2023/12/04 06:16:10;;;;;;;1.03;0.90;;;1.60;41.90;;;;;;5031111;28;20294;-55
2023/12/04 06:18:36;;;;;;;1.10;1.00;;;1.50;41.90;;;;;;5031369;28;20412;-57
2023/12/04 06:21:02;;;;;;;2.20;1.23;;;1.60;41.90;;;;;;5031286;28;20419;-50
2023/12/04 06:23:28;;;;;;;0.70;0.20;;;1.70;41.90;;;;;;5031307;28;20212;-53
2023/12/04 06:25:54;;;;;;;0.80;0.30;;;1.70;41.50;;;;;;5034790;28;20546;-56
2023/12/04 06:28:20;;;;;;;1.10;0.90;;;1.70;41.30;;;;;;5034925;28;20169;-50
2023/12/04 06:30:46;;;;;;;0.90;0.60;;;1.80;41.00;;;;;;5034845;28;20602;-54
2023/12/04 06:33:14;;;;;;;3.75;2.15;;;1.80;40.80;;;;;;5034750;28;20698;-55
2023/12/04 06:35:40;;;;;;;1.10;0.90;;;1.90;40.70;;;;;;5034479;28;20228;-51
2023/12/04 06:38:07;;;;;;;3.75;1.60;;;1.90;40.50;;;;;;5034686;28;20259;-53
2023/12/04 06:40:34;;;;;;;0.90;0.70;;;1.90;40.40;;;;;;5034637;28;20180;-55
2023/12/04 06:43:01;;;;;;;1.90;1.80;;;1.90;40.60;;;;;;5034508;28;20224;-52
2023/12/04 06:45:27;;;;;;;2.25;1.98;;;2.00;40.40;;;;;;5034268;28;20177;-50
2023/12/04 06:47:54;;;;;;;2.97;2.75;;;2.00;40.00;;;;;;5034513;28;20176;-54
2023/12/04 06:50:20;;;;;;;4.20;2.05;;;1.90;39.90;;;;;;5034400;28;20693;-55
2023/12/04 06:52:46;;;;;;;1.00;0.77;;;1.90;40.10;;;;;;5034361;28;20205;-51
2023/12/04 06:55:13;;;;;;;6.40;2.07;;;1.90;40.20;;;;;;5034427;28;20537;-50
2023/12/04 06:57:38;;;;;;;1.88;1.77;;;1.90;40.10;;;;;;5034114;28;20204;-54
2023/12/04 07:00:10;;;;;;;2.37;2.17;;;1.90;40.30;;;;;;5034324;28;20174;-52
2023/12/04 07:02:36;;;;;;;0.73;0.35;;;2.00;40.10;;;;;;5034203;28;20193;-49
2023/12/04 07:05:03;;;;;;;0.90;0.75;;;1.90;40.00;;;;;;5034226;28;20540;-53
2023/12/04 07:07:28;;;;;;;1.55;1.40;;;2.00;39.90;;;;;;5034002;28;20174;-56
2023/12/04 07:09:54;;;;;;;12.93;2.63;;;2.10;40.00;;;;;;5034146;28;20180;-52
2023/12/04 07:12:20;;;;;;;3.53;2.20;;;2.10;39.90;;;;;;5033864;28;20765;-49
2023/12/04 07:14:46;;;;;;;2.90;1.50;;;2.10;39.60;;;;;;5034032;28;20523;-55
2023/12/04 07:17:11;;;;;;;1.77;1.47;;;2.20;39.60;;;;;;5033745;28;20612;-52
2023/12/04 07:19:38;;;;;;;4.10;1.13;;;2.20;39.40;;;;;;5033923;28;20838;-50
2023/12/04 07:22:04;;;;;;;3.90;3.60;;;2.20;39.40;;;;;;5033678;28;20475;-55
2023/12/04 07:24:29;;;;;;;1.43;1.33;;;2.20;39.50;;;;;;5033753;28;20197;-54
2023/12/04 07:26:55;;;;;;;2.03;1.87;;;2.20;39.30;;;;;;5033728;28;20638;-50
2023/12/04 07:29:21;;;;;;;3.47;1.30;;;2.30;39.20;;;;;;5033796;28;20420;-55
2023/12/04 07:31:46;;;;;;;1.47;0.87;;;2.30;39.00;;;;;;5033711;28;20189;-59
2023/12/04 07:34:12;;;;;;;3.70;1.30;;;2.30;38.70;;;;;;5033558;28;20224;-52
2023/12/04 07:36:38;;;;;;;0.90;0.60;;;2.20;38.70;;;;;;5032194;28;20208;-57
2023/12/04 07:39:06;;;;;;;1.13;1.03;;;2.20;39.60;;;;;;5033587;28;20238;-58
2023/12/04 07:41:32;;;;;;;25.88;2.65;;;2.30;39.00;;;;;;5033364;28;20165;-50
2023/12/04 07:43:58;;;;;;;4.90;3.40;;;2.20;38.60;;;;;;5033437;28;20231;-51
2023/12/04 07:46:23;;;;;;;5.20;1.53;;;2.10;39.10;;;;;;5033127;28;20787;-57
2023/12/04 07:48:49;;;;;;;3.17;2.30;;;2.20;39.00;;;;;;5033342;28;20177;-58
2023/12/04 07:51:16;;;;;;;0.97;0.70;;;2.20;38.90;;;;;;5033349;28;20307;-51
2023/12/04 07:53:41;;;;;;;3.20;1.35;;;2.30;38.70;;;;;;5033178;28;20189;-58
2023/12/04 07:56:08;;;;;;;2.83;0.93;;;2.30;38.60;;;;;;5032906;28;20235;-53
2023/12/04 07:58:33;;;;;;;2.85;0.93;;;2.40;38.60;;;;;;5033220;28;20802;-51
2023/12/04 08:00:59;;;;;;;2.20;1.40;;;2.40;38.50;;;;;;5033163;28;20184;-53
2023/12/04 08:03:25;;;;;;;1.67;1.57;;;2.30;38.30;;;;;;5033001;28;20233;-55
2023/12/04 08:05:51;;;;;;;0.93;0.83;;;2.30;38.60;;;;;;5032969;28;20173;-51
2023/12/04 08:08:17;;;;;;;0.90;0.60;;;2.30;38.40;;;;;;5033113;28;20169;-53
2023/12/04 08:10:43;;;;;;;1.53;1.43;;;2.30;38.20;;;;;;5032876;28;20173;-56
2023/12/04 08:13:09;;;;;;;0.90;0.80;;;2.30;38.60;;;;;;5032883;28;20244;-50
2023/12/04 08:15:34;;;;;;;3.00;1.50;;;2.50;38.60;;;;;;5032672;28;20450;-51
2023/12/04 08:18:00;;;;;;;2.53;1.73;;;2.50;38.40;;;;;;5032732;28;20590;-57
2023/12/04 08:20:26;;;;;;;0.90;0.60;;;2.60;38.10;;;;;;5032697;28;20231;-51
2023/12/04 08:22:52;;;;;;;2.15;1.95;;;2.60;38.00;;;;;;5032650;28;20546;-57
2023/12/04 08:25:18;;;;;;;0.80;0.40;;;2.70;37.90;;;;;;5032498;28;20272;-51
2023/12/04 08:27:44;;;;;;;0.80;0.60;;;2.60;37.70;;;;;;5032642;28;20228;-52
2023/12/04 08:30:10;;;;;;;0.90;0.80;;;2.70;38.10;;;;;;5032626;28;20931;-59
2023/12/04 08:32:35;;;;;;;2.33;1.83;;;2.90;38.10;;;;;;5032376;28;20242;-53
2023/12/04 08:35:01;;;;;;;1.67;0.97;;;3.00;37.10;;;;;;5032559;28;20589;-52
2023/12/04 08:37:27;;;;;;;1.73;1.63;;;3.00;37.30;;;;;;5032263;28;20200;-53
2023/12/04 08:39:53;;;;;;;2.50;1.90;;;2.90;37.50;;;;;;5032355;28;20173;-55
2023/12/04 08:42:19;;;;;;;1.40;0.65;;;3.00;37.40;;;;;;5032324;28;20162;-51
2023/12/04 08:44:47;;;;;;;1.30;0.67;;;3.00;37.30;;;;;;5032326;28;20704;-50
2023/12/04 08:47:13;;;;;;;4.75;1.85;;;3.10;37.40;;;;;;5031931;28;20682;-51
2023/12/04 08:49:40;;;;;;;1.10;0.93;;;3.10;37.10;;;;;;5032359;28;20185;-55
2023/12/04 08:52:07;;;;;;;9.48;2.17;;;3.00;37.20;;;;;;5032127;28;20415;-51
2023/12/04 08:54:33;;;;;;;3.08;1.52;;;3.00;37.00;;;;;;5032438;28;20532;-49
2023/12/04 08:56:58;;;;;;;1.30;1.20;;;3.10;37.30;;;;;;5031939;28;20207;-56
2023/12/04 08:59:24;;;;;;;3.63;2.87;;;3.20;36.80;;;;;;5032177;28;20411;-52
2023/12/04 09:01:50;;;;;;;4.90;4.40;;;3.30;37.10;;;;;;5032193;28;20173;-50
2023/12/04 09:04:16;;;;;;;5.23;3.53;;;3.30;36.80;;;;;;5032136;28;20220;-54
2023/12/04 09:06:42;;;;;;;3.55;2.08;;;3.40;37.20;;;;;;5031908;28;20239;-53
2023/12/04 09:09:07;;;;;;;3.33;2.30;;;3.50;37.40;;;;;;5032001;28;20205;-55
2023/12/04 09:11:33;;;;;;;4.27;1.57;;;2.70;36.30;;;;;;5031965;28;20176;-51
2023/12/04 09:13:59;;;;;;;19.80;2.40;;;3.50;36.50;;;;;;5031910;28;20683;-52
2023/12/04 09:16:25;;;;;;;1.80;1.60;;;3.60;36.80;;;;;;5031692;28;20276;-54
2023/12/04 09:18:51;;;;;;;0.90;0.70;;;3.60;36.40;;;;;;5031990;28;20503;-51
2023/12/04 09:21:17;;;;;;;1.10;0.68;;;3.60;37.10;;;;;;5031805;28;20224;-58
2023/12/04 09:23:49;;;;;;;4.13;2.53;;;3.60;36.50;;;;;;5031698;28;20193;-59
2023/12/04 09:26:16;;;;;;;0.80;0.40;;;3.70;36.50;;;;;;5031769;28;20173;-52
2023/12/04 09:28:42;;;;;;;17.60;2.03;;;3.70;36.70;;;;;;5032107;28;20181;-54
2023/12/04 09:31:08;;;;;;;2.87;2.67;;;3.90;36.80;;;;;;5031792;28;20579;-55
2023/12/04 09:33:35;;;;;;;1.85;1.75;;;3.90;36.40;;;;;;5031738;28;20189;-57
2023/12/04 09:36:02;;;;;;;2.65;1.67;;;4.00;36.00;;;;;;5031482;28;20256;-48
2023/12/04 09:38:28;;;;;;;2.35;1.30;;;4.00;35.60;;;;;;5031735;28;20241;-58
2023/12/04 09:40:58;;;;;;;1.95;1.45;;;4.10;36.50;;;;;;5031734;28;20188;-50
2023/12/04 09:43:25;;;;;;;2.65;1.80;;;4.10;35.60;;;;;;5031686;28;20189;-53
2023/12/04 09:45:51;;;;;;;1.55;1.20;;;4.30;36.20;;;;;;5031489;28;20666;-56
2023/12/04 09:48:17;;;;;;;2.00;1.90;;;4.40;35.90;;;;;;5031734;28;20159;-52
2023/12/04 09:50:43;;;;;;;1.87;0.93;;;4.40;35.50;;;;;;5031478;28;20914;-49
2023/12/04 09:53:11;;;;;;;3.67;2.50;;;4.40;35.10;;;;;;5031558;28;20193;-53
2023/12/04 09:55:37;;;;;;;0.80;0.43;;;4.50;35.30;;;;;;5031476;28;20649;-56
2023/12/04 09:58:04;;;;;;;2.17;1.65;;;4.50;35.40;;;;;;5031672;28;20201;-52
2023/12/04 10:00:32;;;;;;;4.65;2.67;;;4.50;35.00;;;;;;5034779;28;20170;-52
2023/12/04 10:02:59;;;;;;;1.00;0.73;;;4.50;35.40;;;;;;5035281;28;20197;-55
2023/12/04 10:05:25;;;;;;;1.33;1.23;;;4.50;35.60;;;;;;5035078;28;20188;-51
2023/12/04 10:07:51;;;;;;;1.60;1.48;;;4.50;34.70;;;;;;5035331;28;20248;-56
2023/12/04 10:10:18;;;;;;;3.13;2.93;;;4.60;34.90;;;;;;5035309;28;20258;-51
2023/12/04 10:12:44;;;;;;;9.48;1.50;;;4.60;35.40;;;;;;5035083;28;20214;-53
2023/12/04 10:15:11;;;;;;;1.58;1.48;;;4.50;35.40;;;;;;5035168;28;20244;-56
2023/12/04 10:17:39;;;;;;;2.95;2.05;;;4.60;35.60;;;;;;5034851;28;20247;-56
2023/12/04 10:20:18;;;;;;;3.03;2.58;;;4.60;35.50;;;;;;5035066;28;20239;-50
2023/12/04 10:22:57;;;;;;;2.00;1.90;;;4.50;35.70;;;;;;5034969;28;20227;-52
2023/12/04 10:25:25;;;;;;;2.80;1.30;;;4.30;35.30;;;;;;5034813;28;20541;-58
2023/12/04 10:27:53;;;;;;;2.15;0.60;;;4.20;35.50;;;;;;5034919;28;20173;-51
2023/12/04 10:30:23;;;;;;;3.50;3.20;;;4.10;35.90;;;;;;5034744;28;20174;-49
2023/12/04 10:32:48;;;;;;;2.05;1.08;;;4.10;36.20;;;;;;5034769;28;20204;-57
2023/12/04 10:35:14;;;;;;;0.90;0.53;;;4.10;36.20;;;;;;5034775;28;20180;-57
2023/12/04 10:37:41;;;;;;;2.17;1.33;;;4.00;36.20;;;;;;5034484;28;20202;-51
2023/12/04 10:40:09;;;;;;;2.83;2.63;;;4.10;36.50;;;;;;5034740;28;20173;-54
2023/12/04 10:42:34;;;;;;;5.35;1.85;;;4.10;36.20;;;;;;5034521;28;20217;-50
2023/12/04 10:45:00;;;;;;;0.83;0.40;;;4.10;35.90;;;;;;5034557;28;20229;-53
2023/12/04 10:47:30;;;;;;;1.20;0.90;;;4.10;35.60;;;;;;5034533;28;20924;-55
2023/12/04 10:49:56;;;;;;;7.68;3.90;;;4.20;35.70;;;;;;5034730;28;21061;-56
2023/12/04 10:52:23;;;;;;;2.60;1.65;;;4.30;35.50;;;;;;5034351;28;20220;-49
2023/12/04 10:54:50;;;;;;;1.35;1.25;;;4.30;35.80;;;;;;5034446;28;20579;-58
2023/12/04 10:57:28;;;;;;;3.40;1.25;;;4.30;35.70;;;;;;5034058;28;20198;-57
2023/12/04 11:00:03;;;;;;;1.85;1.30;;;4.30;35.70;;;;;;5034414;28;20703;-52
2023/12/04 11:02:34;;;;;;;3.22;1.30;;;4.10;35.50;;;;;;5034105;28;20229;-57
2023/12/04 11:05:13;;;;;;;3.67;2.90;;;4.20;35.70;;;;;;5034295;28;20224;-54
2023/12/04 11:07:42;;;;;;;1.88;1.48;;;4.10;35.30;;;;;;5034090;28;20182;-51
2023/12/04 11:10:10;;;;;;;3.35;1.60;;;3.90;35.60;;;;;;5033971;28;20177;-53
2023/12/04 11:12:44;;;;;;;1.10;0.60;;;4.00;36.00;;;;;;5033944;28;20598;-58
2023/12/04 11:15:14;;;;;;;1.80;0.63;;;4.20;35.40;;;;;;5034090;28;20170;-51
2023/12/04 11:17:47;;;;;;;1.00;0.88;;;4.30;35.80;;;;;;5033911;28;20194;-50
2023/12/04 11:20:18;;;;;;;1.73;1.52;;;4.30;35.20;;;;;;5034003;28;20268;-55
2023/12/04 11:22:47;;;;;;;1.15;0.60;;;4.40;35.40;;;;;;5033760;28;20212;-52
2023/12/04 11:25:14;;;;;;;0.90;0.52;;;4.50;35.00;;;;;;5033914;28;20253;-53
2023/12/04 11:27:41;;;;;;;1.85;1.48;;;4.50;35.00;;;;;;5033659;28;20249;-58
2023/12/04 11:30:08;;;;;;;1.05;0.95;;;4.50;35.30;;;;;;5033819;28;20170;-52
2023/12/04 11:32:44;;;;;;;2.15;1.10;;;4.60;34.80;;;;;;5033668;28;20205;-51
2023/12/04 11:35:15;;;;;;;2.97;2.15;;;4.50;35.00;;;;;;5033715;28;20170;-58
2023/12/04 11:37:43;;;;;;;9.07;2.33;;;4.40;35.00;;;;;;5033405;28;20202;-52
2023/12/04 11:40:12;;;;;;;1.60;1.50;;;4.30;35.10;;;;;;5033614;28;20532;-57
2023/12/04 11:42:39;;;;;;;1.42;1.27;;;4.20;35.40;;;;;;5033339;28;20263;-50
2023/12/04 11:45:05;;;;;;;1.27;1.02;;;4.20;35.40;;;;;;5033455;28;20166;-53
2023/12/04 11:47:48;;;;;;;3.28;2.08;;;4.00;35.50;;;;;;5033169;28;20170;-55
2023/12/04 11:50:14;;;;;;;1.92;0.93;;;4.00;35.80;;;;;;5033405;28;20193;-56
2023/12/04 11:52:40;;;;;;;1.40;1.20;;;4.00;35.90;;;;;;5033229;28;20687;-52
2023/12/04 11:55:06;;;;;;;1.00;0.90;;;4.10;35.40;;;;;;5033285;28;20216;-53
2023/12/04 11:57:39;;;;;;;2.20;1.20;;;4.10;35.80;;;;;;5033019;28;20189;-55
2023/12/04 12:00:18;;;;;;;2.45;2.22;;;4.00;35.80;;;;;;5033192;28;20181;-50
2023/12/04 12:03:06;;;;;;;1.60;1.50;;;4.00;35.50;;;;;;5033002;28;20718;-58
2023/12/04 12:05:33;;;;;;;4.03;2.42;;;4.00;35.70;;;;;;5032949;28;20185;-51
2023/12/04 12:08:03;;;;;;;1.20;1.10;;;4.00;35.80;;;;;;5033009;28;20189;-51
2023/12/04 12:10:29;;;;;;;6.95;2.80;;;4.00;35.70;;;;;;5032915;28;20186;-56
2023/12/04 12:12:56;;;;;;;1.63;1.40;;;4.00;35.70;;;;;;5032861;28;20186;-57
2023/12/04 12:15:22;;;;;;;3.08;1.30;;;4.10;36.00;;;;;;5032708;28;20174;-52
2023/12/04 12:17:51;;;;;;;2.00;1.90;;;4.10;35.70;;;;;;5032804;28;20260;-53
2023/12/04 12:20:17;;;;;;;7.07;1.58;;;4.10;36.00;;;;;;5032759;28;20454;-56
2023/12/04 12:22:43;;;;;;;2.55;1.33;;;4.20;35.70;;;;;;5031970;28;20603;-58
2023/12/04 12:25:10;;;;;;;2.40;2.20;;;4.30;35.70;;;;;;5032670;28;20270;-50
2023/12/04 12:27:37;;;;;;;4.43;1.55;;;4.30;35.40;;;;;;5032493;28;20177;-58
2023/12/04 12:30:04;;;;;;;0.82;0.63;;;4.40;35.50;;;;;;5032616;28;20180;-58
2023/12/04 12:32:34;;;;;;;2.85;2.65;;;4.40;35.20;;;;;;5032425;28;20267;-52
2023/12/04 12:35:00;;;;;;;2.10;1.65;;;4.30;35.30;;;;;;5032631;28;20173;-60
2023/12/04 12:37:26;;;;;;;4.13;2.00;;;4.40;35.20;;;;;;5032193;28;20201;-53
2023/12/04 12:39:52;;;;;;;1.08;0.73;;;4.40;35.10;;;;;;5032508;28;20169;-51
2023/12/04 12:42:26;;;;;;;1.85;1.75;;;4.50;35.50;;;;;;5032382;28;20174;-53
2023/12/04 12:44:52;;;;;;;0.85;0.50;;;4.50;35.50;;;;;;5032491;28;20163;-58
2023/12/04 12:47:19;;;;;;;4.95;3.38;;;4.60;34.70;;;;;;5032180;28;20174;-51
2023/12/04 12:49:45;;;;;;;1.35;0.77;;;4.60;35.10;;;;;;5032341;28;20171;-54
2023/12/04 12:52:11;;;;;;;1.67;1.58;;;4.60;35.30;;;;;;5032056;28;20182;-57
2023/12/04 12:54:38;;;;;;;4.55;3.40;;;4.60;35.10;;;;;;5032212;28;20162;-52